createdAt,value
2022-11-29T00:00:38.239Z,8.78
2022-11-29T00:03:04.683Z,8.56
2022-11-29T00:05:34.077Z,8.56
2022-11-29T00:08:00.438Z,8.55
2022-11-29T00:10:26.796Z,8.46
2022-11-29T00:12:53.162Z,8.47
2022-11-29T00:15:19.558Z,8.60
2022-11-29T00:17:45.943Z,8.59
2022-11-29T00:20:12.640Z,8.38
2022-11-29T00:22:39.070Z,8.45
2022-11-29T00:25:06.375Z,8.57
2022-11-29T00:27:32.894Z,8.54
2022-11-29T00:29:59.302Z,8.73
2022-11-29T00:32:25.728Z,8.74
2022-11-29T00:34:52.259Z,8.83
2022-11-29T00:37:18.679Z,8.83
2022-11-29T00:39:45.116Z,8.74
2022-11-29T00:42:11.478Z,8.68
2022-11-29T00:44:37.858Z,8.66
2022-11-29T00:47:04.242Z,8.68
2022-11-29T00:49:30.625Z,8.66
2022-11-29T00:51:57.011Z,8.62
2022-11-29T00:54:23.360Z,8.64
2022-11-29T00:56:49.769Z,8.63
2022-11-29T00:59:16.125Z,8.71
2022-11-29T01:01:42.533Z,8.77
2022-11-29T01:04:09.105Z,8.63
2022-11-29T01:06:35.532Z,8.60
2022-11-29T01:09:01.932Z,8.70
2022-11-29T01:11:28.533Z,8.80
2022-11-29T01:14:08.336Z,8.86
2022-11-29T01:16:34.902Z,8.91
2022-11-29T01:19:01.386Z,8.89
2022-11-29T01:21:28.153Z,8.91
2022-11-29T01:23:55.168Z,8.90
2022-11-29T01:26:26.677Z,8.80
2022-11-29T01:28:54.949Z,8.71
2022-11-29T01:31:33.069Z,8.79
2022-11-29T01:34:01.115Z,8.70
2022-11-29T01:36:27.889Z,8.67
2022-11-29T01:38:54.301Z,8.66
2022-11-29T01:41:24.122Z,8.80
2022-11-29T01:43:58.768Z,8.69
2022-11-29T01:46:25.998Z,8.68
2022-11-29T01:48:55.298Z,8.64
2022-11-29T01:51:21.876Z,8.83
2022-11-29T01:53:48.440Z,8.84
2022-11-29T01:56:15.990Z,8.81
2022-11-29T01:58:43.682Z,8.91
2022-11-29T02:01:10.403Z,8.88
2022-11-29T02:03:36.956Z,8.79
2022-11-29T02:06:04.575Z,8.73
2022-11-29T02:08:38.812Z,8.80
2022-11-29T02:11:34.600Z,8.59
2022-11-29T02:14:14.025Z,8.64
2022-11-29T02:17:03.890Z,8.69
2022-11-29T02:20:10.080Z,8.70
2022-11-29T02:23:07.615Z,8.70
2022-11-29T02:25:41.464Z,8.66
2022-11-29T02:28:35.756Z,8.68
2022-11-29T02:31:30.676Z,8.69
2022-11-29T02:34:18.154Z,8.63
2022-11-29T02:36:55.534Z,8.53
2022-11-29T02:39:39.096Z,8.45
2022-11-29T02:42:20.486Z,8.58
2022-11-29T02:45:14.914Z,8.59
2022-11-29T02:48:00.153Z,8.57
2022-11-29T02:50:35.108Z,8.65
2022-11-29T02:53:31.011Z,8.70
2022-11-29T02:56:07.012Z,8.51
2022-11-29T02:58:51.221Z,8.37
2022-11-29T03:01:46.287Z,8.50
2022-11-29T03:04:23.686Z,8.49
2022-11-29T03:06:56.934Z,8.22
2022-11-29T03:09:43.498Z,8.24
2022-11-29T03:12:21.415Z,8.21
2022-11-29T03:15:17.086Z,8.17
2022-11-29T03:18:07.959Z,8.21
2022-11-29T03:20:34.219Z,8.28
2022-11-29T03:23:14.970Z,8.28
2022-11-29T03:25:53.501Z,8.24
2022-11-29T03:28:29.972Z,8.19
2022-11-29T03:31:12.905Z,8.29
2022-11-29T03:33:58.954Z,8.26
2022-11-29T03:36:40.256Z,8.08
2022-11-29T03:39:13.326Z,8.20
2022-11-29T03:41:53.310Z,8.19
2022-11-29T03:44:27.043Z,8.18
2022-11-29T03:47:15.333Z,8.19
2022-11-29T03:49:49.667Z,8.24
2022-11-29T03:52:54.823Z,8.13
2022-11-29T03:55:21.107Z,8.15
2022-11-29T03:58:13.086Z,8.20
2022-11-29T04:01:09.457Z,8.14
2022-11-29T04:03:54.555Z,8.13
2022-11-29T04:06:31.480Z,8.02
2022-11-29T04:09:32.067Z,8.13
2022-11-29T04:12:15.991Z,8.08
2022-11-29T04:14:54.860Z,8.17
2022-11-29T04:17:36.248Z,8.26
2022-11-29T04:20:14.067Z,8.04
2022-11-29T04:22:52.456Z,8.02
2022-11-29T04:25:40.710Z,8.13
2022-11-29T04:28:21.985Z,8.16
2022-11-29T04:31:12.656Z,8.18
2022-11-29T04:33:47.389Z,8.26
2022-11-29T04:36:35.745Z,8.34
2022-11-29T04:39:11.230Z,8.27
2022-11-29T04:42:08.676Z,8.34
2022-11-29T04:44:43.504Z,8.18
2022-11-29T04:47:34.970Z,8.27
2022-11-29T04:50:58.888Z,8.28
2022-11-29T04:53:49.328Z,8.11
2022-11-29T04:56:43.188Z,8.25
2022-11-29T04:59:20.478Z,8.26
2022-11-29T05:02:05.643Z,8.17
2022-11-29T05:04:53.570Z,8.10
2022-11-29T05:07:31.287Z,8.28
2022-11-29T05:10:42.121Z,8.12
2022-11-29T05:13:23.293Z,8.29
2022-11-29T05:16:07.321Z,8.21
2022-11-29T05:18:54.472Z,8.14
2022-11-29T05:21:45.731Z,8.01
2022-11-29T05:24:24.792Z,8.13
2022-11-29T05:27:09.072Z,8.08
2022-11-29T05:29:43.438Z,8.12
2022-11-29T05:32:32.662Z,8.11
2022-11-29T05:35:20.821Z,8.12
2022-11-29T05:38:13.561Z,8.11
2022-11-29T05:40:49.293Z,7.99
2022-11-29T05:43:30.446Z,8.00
2022-11-29T05:46:06.024Z,7.98
2022-11-29T05:49:01.296Z,7.97
2022-11-29T05:51:55.894Z,8.12
2022-11-29T05:54:38.196Z,8.09
2022-11-29T05:57:12.473Z,8.22
2022-11-29T05:59:39.521Z,8.20
2022-11-29T06:02:27.922Z,8.25
2022-11-29T06:04:57.265Z,8.30
2022-11-29T06:07:37.610Z,8.20
2022-11-29T06:10:23.880Z,8.31
2022-11-29T06:13:04.196Z,8.34
2022-11-29T06:15:58.648Z,8.35
2022-11-29T06:18:27.378Z,8.29
2022-11-29T06:21:06.342Z,8.25
2022-11-29T06:23:44.913Z,8.15
2022-11-29T06:26:46.688Z,8.27
2022-11-29T06:29:33.128Z,8.34
2022-11-29T06:32:40.126Z,8.23
2022-11-29T06:35:24.435Z,8.18
2022-11-29T06:37:52.570Z,8.08
2022-11-29T06:40:19.007Z,8.00
2022-11-29T06:42:45.444Z,8.14
2022-11-29T06:45:15.285Z,8.28
2022-11-29T06:48:17.049Z,8.40
2022-11-29T06:51:07.340Z,8.14
2022-11-29T06:53:40.984Z,8.24
2022-11-29T06:56:41.664Z,8.18
2022-11-29T06:59:17.948Z,8.17
2022-11-29T07:01:49.919Z,8.08
2022-11-29T07:04:32.347Z,8.10
2022-11-29T07:06:58.746Z,8.14
2022-11-29T07:09:33.645Z,8.37
2022-11-29T07:12:00.382Z,8.34
2022-11-29T07:14:26.956Z,8.32
2022-11-29T07:17:01.376Z,8.25
2022-11-29T07:19:39.757Z,8.30
2022-11-29T07:22:41.120Z,8.13
2022-11-29T07:25:31.918Z,8.02
2022-11-29T07:28:06.948Z,7.74
2022-11-29T07:30:51.180Z,7.93
2022-11-29T07:33:22.283Z,7.92
2022-11-29T07:35:48.548Z,7.87
2022-11-29T07:38:31.662Z,8.05
2022-11-29T07:41:06.160Z,8.00
2022-11-29T07:44:02.037Z,7.95
2022-11-29T07:46:29.074Z,8.09
2022-11-29T07:48:55.557Z,8.09
2022-11-29T07:51:21.928Z,8.08
2022-11-29T07:53:48.353Z,8.13
2022-11-29T07:56:16.220Z,8.17
2022-11-29T07:58:42.842Z,8.20
2022-11-29T08:01:09.257Z,8.29
2022-11-29T08:03:35.737Z,8.51
2022-11-29T08:06:02.809Z,8.37
2022-11-29T08:08:29.293Z,8.20
2022-11-29T08:10:55.730Z,8.24
2022-11-29T08:13:22.140Z,8.08
2022-11-29T08:15:48.751Z,8.25
2022-11-29T08:18:15.678Z,8.27
2022-11-29T08:20:42.647Z,8.10
2022-11-29T08:23:11.283Z,8.16
2022-11-29T08:25:37.675Z,8.24
2022-11-29T08:28:04.568Z,8.28
2022-11-29T08:30:30.929Z,8.29
2022-11-29T08:32:57.321Z,8.35
2022-11-29T08:35:24.578Z,8.31
2022-11-29T08:37:51.000Z,8.36
2022-11-29T08:40:18.014Z,8.32
2022-11-29T08:42:44.403Z,8.46
2022-11-29T08:45:11.332Z,8.38
2022-11-29T08:47:38.341Z,8.37
2022-11-29T08:50:05.943Z,8.46
2022-11-29T08:52:55.327Z,8.54
2022-11-29T08:55:23.263Z,8.59
2022-11-29T08:57:51.094Z,8.57
2022-11-29T09:00:18.717Z,8.71
2022-11-29T09:02:45.110Z,8.61
2022-11-29T09:05:11.662Z,8.54
2022-11-29T09:07:38.551Z,8.43
2022-11-29T09:10:08.127Z,8.46
2022-11-29T09:12:38.801Z,8.41
2022-11-29T09:15:07.016Z,8.49
2022-11-29T09:17:33.448Z,8.49
2022-11-29T09:19:59.905Z,8.55
2022-11-29T09:22:26.264Z,8.74
2022-11-29T09:24:52.765Z,8.76
2022-11-29T09:27:19.220Z,8.53
2022-11-29T09:29:45.616Z,8.67
2022-11-29T09:32:11.985Z,8.64
2022-11-29T09:34:38.361Z,8.78
2022-11-29T09:37:05.409Z,8.81
2022-11-29T09:39:31.811Z,8.86
2022-11-29T09:42:47.852Z,8.67
2022-11-29T09:45:19.747Z,8.67
2022-11-29T09:48:19.715Z,9.01
2022-11-29T09:50:59.336Z,8.73
2022-11-29T09:53:43.911Z,8.70
2022-11-29T09:56:25.698Z,8.98
2022-11-29T09:58:59.212Z,8.72
2022-11-29T10:01:32.512Z,8.69
2022-11-29T10:04:03.999Z,8.86
2022-11-29T10:06:39.979Z,8.85
2022-11-29T10:09:33.907Z,8.74
2022-11-29T10:12:16.360Z,8.58
2022-11-29T10:14:59.264Z,8.89
2022-11-29T10:17:37.731Z,8.70
2022-11-29T10:20:15.638Z,8.76
2022-11-29T10:22:53.344Z,9.07
2022-11-29T10:25:36.077Z,9.08
2022-11-29T10:28:04.428Z,8.83
2022-11-29T10:30:33.876Z,8.59
2022-11-29T10:33:00.789Z,8.47
2022-11-29T10:35:27.334Z,8.45
2022-11-29T10:38:22.703Z,8.41
2022-11-29T10:40:46.911Z,8.97
2022-11-29T10:43:13.321Z,8.85
2022-11-29T10:45:50.848Z,8.58
2022-11-29T10:48:19.178Z,8.42
2022-11-29T10:50:48.401Z,8.85
2022-11-29T10:53:20.537Z,8.74
2022-11-29T10:55:51.221Z,8.47
2022-11-29T10:58:24.726Z,8.58
2022-11-29T11:01:01.612Z,8.69
2022-11-29T11:03:40.082Z,8.75
2022-11-29T11:06:16.190Z,8.63
2022-11-29T11:08:52.167Z,9.04
2022-11-29T11:11:32.067Z,9.02
2022-11-29T11:14:18.048Z,9.31
2022-11-29T11:16:44.463Z,9.44
2022-11-29T11:19:31.811Z,9.05
2022-11-29T11:22:00.382Z,9.00
2022-11-29T11:24:40.600Z,8.88
2022-11-29T11:27:07.289Z,8.92
2022-11-29T11:29:38.025Z,9.18
2022-11-29T11:32:05.382Z,9.31
2022-11-29T11:34:34.443Z,8.92
2022-11-29T11:37:20.712Z,8.84
2022-11-29T11:39:50.078Z,8.67
2022-11-29T11:42:37.822Z,8.63
2022-11-29T11:45:06.790Z,9.11
2022-11-29T11:47:36.478Z,9.06
2022-11-29T11:50:03.340Z,9.17
2022-11-29T11:52:50.472Z,8.73
2022-11-29T11:55:34.202Z,8.66
2022-11-29T11:58:13.692Z,8.63
2022-11-29T12:01:05.535Z,8.64
2022-11-29T12:03:50.954Z,8.86
2022-11-29T12:06:44.042Z,8.63
2022-11-29T12:09:36.538Z,8.85
2022-11-29T12:12:22.647Z,8.78
2022-11-29T12:15:01.997Z,8.99
2022-11-29T12:17:37.184Z,8.75
2022-11-29T12:20:25.511Z,8.85
2022-11-29T12:23:10.274Z,8.86
2022-11-29T12:25:47.139Z,8.74
2022-11-29T12:28:20.011Z,8.94
2022-11-29T12:31:03.433Z,8.99
2022-11-29T12:33:37.086Z,8.97
2022-11-29T12:36:24.741Z,8.96
2022-11-29T12:39:13.137Z,8.83
2022-11-29T12:41:54.337Z,8.89
2022-11-29T12:44:24.590Z,9.01
2022-11-29T12:47:39.638Z,9.01
2022-11-29T12:50:21.918Z,9.24
2022-11-29T12:52:54.375Z,8.74
2022-11-29T12:55:53.403Z,8.69
2022-11-29T12:58:33.506Z,8.84
2022-11-29T13:01:30.930Z,8.75
2022-11-29T13:04:14.957Z,8.54
2022-11-29T13:06:48.404Z,8.40
2022-11-29T13:09:42.185Z,8.36
2022-11-29T13:12:33.632Z,8.50
2022-11-29T13:15:05.204Z,8.54
2022-11-29T13:17:55.922Z,8.28
2022-11-29T13:20:34.398Z,8.43
2022-11-29T13:23:45.809Z,8.49
2022-11-29T13:26:17.545Z,8.48
2022-11-29T13:28:46.287Z,8.53
2022-11-29T13:31:16.163Z,8.51
2022-11-29T13:33:58.065Z,8.73
2022-11-29T13:36:42.619Z,8.64
2022-11-29T13:39:37.003Z,8.67
2022-11-29T13:42:32.587Z,8.65
2022-11-29T13:45:24.448Z,8.58
2022-11-29T13:48:01.215Z,8.78
2022-11-29T13:50:44.583Z,8.61
2022-11-29T13:53:17.019Z,8.43
2022-11-29T13:56:03.886Z,8.56
2022-11-29T13:58:39.590Z,8.16
2022-11-29T14:01:14.338Z,8.29
2022-11-29T14:03:42.626Z,8.25
2022-11-29T14:06:35.935Z,8.39
2022-11-29T14:09:25.548Z,8.42
2022-11-29T14:12:19.931Z,8.52
2022-11-29T14:14:53.953Z,8.39
2022-11-29T14:17:46.526Z,8.35
2022-11-29T14:20:28.566Z,8.25
2022-11-29T14:23:14.541Z,8.09
2022-11-29T14:25:56.109Z,8.24
2022-11-29T14:28:22.378Z,8.33
2022-11-29T14:30:53.544Z,8.42
2022-11-29T14:33:27.004Z,8.54
2022-11-29T14:36:04.487Z,8.55
2022-11-29T14:38:43.938Z,8.38
2022-11-29T14:41:39.534Z,8.46
2022-11-29T14:44:25.920Z,8.18
2022-11-29T14:47:13.092Z,8.44
2022-11-29T14:49:41.571Z,8.63
2022-11-29T14:52:13.967Z,8.41
2022-11-29T14:54:56.382Z,8.49
2022-11-29T14:57:44.837Z,8.14
2022-11-29T15:00:14.668Z,8.62
2022-11-29T15:02:45.205Z,8.53
2022-11-29T15:05:21.699Z,8.45
2022-11-29T15:07:57.275Z,8.44
2022-11-29T15:10:26.997Z,8.34
2022-11-29T15:12:53.541Z,8.37
2022-11-29T15:15:32.349Z,8.52
2022-11-29T15:18:06.143Z,8.30
2022-11-29T15:20:40.483Z,8.51
2022-11-29T15:23:13.295Z,8.71
2022-11-29T15:25:47.525Z,8.61
2022-11-29T15:28:23.647Z,8.38
2022-11-29T15:30:59.922Z,8.58
2022-11-29T15:33:26.371Z,8.73
2022-11-29T15:35:55.186Z,8.62
2022-11-29T15:38:23.345Z,8.31
2022-11-29T15:40:54.276Z,8.17
2022-11-29T15:43:30.600Z,8.34
2022-11-29T15:45:58.108Z,8.39
2022-11-29T15:48:29.224Z,8.20
2022-11-29T15:51:02.576Z,8.13
2022-11-29T15:54:13.123Z,8.27
2022-11-29T15:56:45.749Z,8.10
2022-11-29T15:59:34.633Z,8.19
2022-11-29T16:02:07.679Z,8.18
2022-11-29T16:04:38.348Z,8.18
2022-11-29T16:07:07.635Z,8.28
2022-11-29T16:09:40.995Z,8.24
2022-11-29T16:12:12.684Z,8.25
2022-11-29T16:14:52.702Z,8.16
2022-11-29T16:17:20.808Z,8.20
2022-11-29T16:19:47.825Z,8.42
2022-11-29T16:22:22.490Z,8.55
2022-11-29T16:25:04.970Z,8.76
2022-11-29T16:27:33.477Z,8.37
2022-11-29T16:30:00.188Z,8.34
2022-11-29T16:32:27.851Z,8.32
2022-11-29T16:34:55.490Z,8.14
2022-11-29T16:37:26.652Z,8.21
2022-11-29T16:39:57.806Z,8.33
2022-11-29T16:42:29.227Z,8.43
2022-11-29T16:45:01.564Z,8.31
2022-11-29T16:47:29.915Z,8.08
2022-11-29T16:50:02.294Z,8.11
2022-11-29T16:52:31.111Z,8.23
2022-11-29T16:54:57.572Z,8.09
2022-11-29T16:57:24.358Z,8.34
2022-11-29T16:59:50.878Z,8.42
2022-11-29T17:02:17.321Z,8.18
2022-11-29T17:04:44.211Z,8.23
2022-11-29T17:07:26.327Z,8.23
2022-11-29T17:09:52.896Z,8.27
2022-11-29T17:12:19.493Z,8.37
2022-11-29T17:14:46.019Z,7.92
2022-11-29T17:17:16.789Z,8.24
2022-11-29T17:19:43.231Z,8.19
2022-11-29T17:22:09.807Z,8.11
2022-11-29T17:24:37.408Z,8.08
2022-11-29T17:27:04.002Z,8.12
2022-11-29T17:29:30.402Z,8.09
2022-11-29T17:31:56.854Z,8.08
2022-11-29T17:34:23.357Z,7.87
2022-11-29T17:36:49.789Z,8.10
2022-11-29T17:39:19.878Z,8.10
2022-11-29T17:41:46.471Z,8.04
2022-11-29T17:44:12.899Z,8.09
2022-11-29T17:46:39.338Z,8.24
2022-11-29T17:49:07.706Z,8.29
2022-11-29T17:51:52.219Z,8.10
2022-11-29T17:54:19.364Z,8.38
2022-11-29T17:56:45.735Z,8.37
2022-11-29T17:59:12.086Z,8.16
2022-11-29T18:01:38.510Z,8.26
2022-11-29T18:04:06.384Z,8.39
2022-11-29T18:06:38.482Z,8.35
2022-11-29T18:09:06.291Z,8.23
2022-11-29T18:11:43.225Z,8.38
2022-11-29T18:14:15.194Z,8.44
2022-11-29T18:16:41.728Z,8.32
2022-11-29T18:19:11.775Z,8.33
2022-11-29T18:21:38.155Z,8.32
2022-11-29T18:24:05.947Z,8.14
2022-11-29T18:26:33.172Z,8.30
2022-11-29T18:29:00.013Z,7.83
2022-11-29T18:31:29.118Z,8.11
2022-11-29T18:33:58.444Z,8.23
2022-11-29T18:36:29.727Z,8.39
2022-11-29T18:39:00.932Z,8.38
2022-11-29T18:41:28.429Z,8.46
2022-11-29T18:43:57.254Z,8.52
2022-11-29T18:46:24.733Z,8.53
2022-11-29T18:48:51.334Z,8.42
2022-11-29T18:51:19.605Z,8.55
2022-11-29T18:53:46.452Z,8.44
2022-11-29T18:56:18.214Z,8.55
2022-11-29T18:58:47.078Z,8.44
2022-11-29T19:01:15.541Z,8.44
2022-11-29T19:03:44.157Z,8.06
2022-11-29T19:06:13.394Z,7.96
2022-11-29T19:08:39.923Z,8.25
2022-11-29T19:11:06.719Z,8.32
2022-11-29T19:13:33.970Z,8.38
2022-11-29T19:16:01.150Z,8.11
2022-11-29T19:18:27.899Z,8.12
2022-11-29T19:20:54.371Z,8.18
2022-11-29T19:23:21.281Z,7.99
2022-11-29T19:25:47.791Z,8.16
2022-11-29T19:28:14.593Z,8.25
2022-11-29T19:30:41.063Z,8.29
2022-11-29T19:33:07.909Z,8.06
2022-11-29T19:35:34.597Z,8.07
2022-11-29T19:38:00.958Z,8.14
2022-11-29T19:40:27.702Z,7.94
2022-11-29T19:42:54.081Z,7.99
2022-11-29T19:45:21.738Z,8.23
2022-11-29T19:47:48.142Z,8.33
2022-11-29T19:50:14.497Z,8.29
2022-11-29T19:52:40.850Z,8.20
2022-11-29T19:55:07.704Z,8.26
2022-11-29T19:57:34.120Z,8.01
2022-11-29T20:00:00.613Z,7.95
2022-11-29T20:02:27.719Z,8.20
2022-11-29T20:04:54.187Z,8.22
2022-11-29T20:07:20.569Z,7.92
2022-11-29T20:09:47.420Z,7.76
2022-11-29T20:12:14.108Z,7.85
2022-11-29T20:14:40.458Z,7.92
2022-11-29T20:17:06.861Z,8.02
2022-11-29T20:19:34.207Z,8.14
2022-11-29T20:22:00.621Z,7.84
2022-11-29T20:24:26.967Z,7.71
2022-11-29T20:26:53.378Z,7.65
2022-11-29T20:29:21.400Z,7.86
2022-11-29T20:31:50.769Z,7.87
2022-11-29T20:34:18.204Z,7.83
2022-11-29T20:36:52.069Z,7.97
2022-11-29T20:40:12.702Z,8.04
2022-11-29T20:42:53.846Z,7.96
2022-11-29T20:45:20.527Z,7.65
2022-11-29T20:47:50.250Z,7.62
2022-11-29T20:50:30.748Z,7.70
2022-11-29T20:53:26.596Z,7.80
2022-11-29T20:55:52.953Z,7.96
2022-11-29T20:58:19.377Z,7.82
2022-11-29T21:00:46.202Z,7.86
2022-11-29T21:03:14.478Z,7.50
2022-11-29T21:05:40.898Z,7.60
2022-11-29T21:08:07.351Z,7.78
2022-11-29T21:10:33.843Z,7.85
2022-11-29T21:13:00.438Z,8.04
2022-11-29T21:15:27.350Z,7.94
2022-11-29T21:17:53.945Z,7.95
2022-11-29T21:20:25.753Z,8.04
2022-11-29T21:22:58.920Z,8.03
2022-11-29T21:25:43.925Z,7.93
2022-11-29T21:28:14.789Z,7.69
2022-11-29T21:30:42.278Z,7.72
2022-11-29T21:33:08.957Z,7.70
2022-11-29T21:35:39.478Z,7.77
2022-11-29T21:38:06.881Z,7.77
2022-11-29T21:40:33.281Z,7.73
2022-11-29T21:42:59.652Z,7.68
2022-11-29T21:45:26.055Z,7.48
2022-11-29T21:47:52.436Z,7.45
2022-11-29T21:50:18.794Z,7.51
2022-11-29T21:52:45.252Z,7.53
2022-11-29T21:55:11.972Z,7.41
2022-11-29T21:57:38.812Z,7.51
2022-11-29T22:00:05.865Z,7.48
2022-11-29T22:02:32.376Z,7.62
2022-11-29T22:04:58.807Z,7.50
2022-11-29T22:07:25.245Z,7.89
2022-11-29T22:09:51.725Z,7.76
2022-11-29T22:12:34.903Z,7.74
2022-11-29T22:15:01.691Z,7.82
2022-11-29T22:17:28.082Z,7.94
2022-11-29T22:19:54.443Z,8.03
2022-11-29T22:22:20.824Z,7.65
2022-11-29T22:24:47.508Z,7.90
2022-11-29T22:27:14.176Z,7.95
2022-11-29T22:29:40.530Z,7.93
2022-11-29T22:32:06.884Z,7.99
2022-11-29T22:34:33.234Z,7.99
2022-11-29T22:36:59.580Z,8.04
2022-11-29T22:39:26.048Z,8.03
2022-11-29T22:41:54.693Z,7.98
2022-11-29T22:44:22.403Z,8.13
2022-11-29T22:46:48.881Z,7.96
2022-11-29T22:49:15.284Z,7.68
2022-11-29T22:51:41.674Z,7.55
2022-11-29T22:54:10.311Z,7.48
2022-11-29T22:56:38.879Z,7.60
2022-11-29T22:59:05.604Z,7.38
2022-11-29T23:01:33.649Z,7.55
2022-11-29T23:04:02.901Z,7.78
2022-11-29T23:06:31.836Z,7.71
2022-11-29T23:09:00.066Z,7.64
2022-11-29T23:11:28.105Z,7.36
2022-11-29T23:13:55.285Z,7.60
2022-11-29T23:16:24.568Z,7.61
2022-11-29T23:18:51.269Z,7.83
2022-11-29T23:21:23.258Z,7.93
2022-11-29T23:23:55.849Z,7.99
2022-11-29T23:26:25.013Z,8.08
2022-11-29T23:28:51.727Z,8.07
2022-11-29T23:31:18.654Z,8.18
2022-11-29T23:33:45.167Z,8.16
2022-11-29T23:36:12.436Z,7.92
2022-11-29T23:38:39.445Z,8.02
2022-11-29T23:41:06.435Z,8.09
2022-11-29T23:43:35.141Z,8.17
2022-11-29T23:46:14.938Z,8.02
2022-11-29T23:48:41.680Z,8.21
2022-11-29T23:51:08.081Z,8.18
2022-11-29T23:53:34.530Z,8.13
2022-11-29T23:56:05.901Z,7.94
2022-11-29T23:58:33.028Z,8.18
